createdAt,value
2018-08-03T00:02:14.374Z,100821.35
2018-08-03T00:04:45.725Z,100824.25
2018-08-03T00:07:14.332Z,100825.83
2018-08-03T00:09:42.848Z,100827.19
2018-08-03T00:12:11.683Z,100827.16
2018-08-03T00:14:40.242Z,100818.36
2018-08-03T00:17:08.843Z,100820.28
2018-08-03T00:19:37.998Z,100823.01
2018-08-03T00:22:07.120Z,100827.45
2018-08-03T00:24:35.978Z,100822.20
2018-08-03T00:27:04.990Z,100820.06
2018-08-03T00:29:33.584Z,100822.19
2018-08-03T00:32:02.883Z,100821.98
2018-08-03T00:34:32.442Z,100824.88
2018-08-03T00:37:01.077Z,100823.69
2018-08-03T00:39:29.940Z,100821.69
2018-08-03T00:41:58.845Z,100831.41
2018-08-03T00:44:28.424Z,100834.94
2018-08-03T00:46:57.604Z,100831.22
2018-08-03T00:49:26.188Z,100835.06
2018-08-03T00:51:55.486Z,100832.50
2018-08-03T00:54:24.060Z,100834.20
2018-08-03T00:56:53.370Z,100830.27
2018-08-03T00:59:22.270Z,100833.11
2018-08-03T01:01:50.837Z,100836.44
2018-08-03T01:04:20.336Z,100832.12
2018-08-03T01:06:49.228Z,100838.73
2018-08-03T01:09:18.520Z,100839.20
2018-08-03T01:11:47.118Z,100841.64
2018-08-03T01:14:16.188Z,100833.20
2018-08-03T01:16:44.656Z,100841.97
2018-08-03T01:19:14.520Z,100838.81
2018-08-03T01:21:46.408Z,100834.77
2018-08-03T01:24:16.056Z,100841.50
2018-08-03T01:26:44.599Z,100839.92
2018-08-03T01:29:14.758Z,100833.37
2018-08-03T01:31:46.060Z,100834.95
2018-08-03T01:34:14.920Z,100832.63
2018-08-03T01:36:43.588Z,100831.48
2018-08-03T01:39:13.060Z,100825.26
2018-08-03T01:41:41.687Z,100828.04
2018-08-03T01:44:10.899Z,100820.91
2018-08-03T01:46:39.788Z,100826.52
2018-08-03T01:49:08.939Z,100822.03
2018-08-03T01:51:38.025Z,100821.01
2018-08-03T01:54:06.656Z,100822.58
2018-08-03T01:56:35.519Z,100822.95
2018-08-03T01:59:05.393Z,100823.02
2018-08-03T02:01:34.851Z,100831.88
2018-08-03T02:04:04.693Z,100820.89
2018-08-03T02:06:33.815Z,100816.97
2018-08-03T02:09:03.712Z,100824.55
2018-08-03T02:11:34.930Z,100818.97
2018-08-03T02:14:05.387Z,100819.38
2018-08-03T02:16:35.976Z,100821.05
2018-08-03T02:19:05.532Z,100819.16
2018-08-03T02:21:34.908Z,100824.02
2018-08-03T02:24:04.278Z,100825.07
2018-08-03T02:26:33.292Z,100825.34
2018-08-03T02:29:02.404Z,100829.00
2018-08-03T02:31:32.334Z,100831.94
2018-08-03T02:34:01.606Z,100823.55
2018-08-03T02:36:31.699Z,100826.50
2018-08-03T02:39:00.839Z,100831.94
2018-08-03T02:41:30.722Z,100831.84
2018-08-03T02:43:59.616Z,100838.38
2018-08-03T02:46:29.541Z,100838.75
2018-08-03T02:48:58.330Z,100843.48
2018-08-03T02:51:29.646Z,100844.20
2018-08-03T02:53:59.466Z,100841.53
2018-08-03T02:56:30.709Z,100850.05
2018-08-03T02:59:03.855Z,100852.20
2018-08-03T03:01:33.252Z,100860.44
2018-08-03T03:04:03.338Z,100856.31
2018-08-03T03:06:33.410Z,100870.75
2018-08-03T03:09:04.307Z,100859.09
2018-08-03T03:11:34.006Z,100862.37
2018-08-03T03:14:05.874Z,100868.40
2018-08-03T03:16:36.309Z,100865.30
2018-08-03T03:19:06.090Z,100866.11
2018-08-03T03:21:35.902Z,100865.38
2018-08-03T03:24:05.612Z,100863.70
2018-08-03T03:26:34.946Z,100862.28
2018-08-03T03:29:07.586Z,100864.78
2018-08-03T03:31:39.797Z,100852.97
2018-08-03T03:48:49.026Z,100862.28
2018-08-03T03:51:18.755Z,100868.78
2018-08-03T03:53:53.622Z,100863.13
2018-08-03T03:56:25.414Z,100862.12
2018-08-03T03:58:54.714Z,100862.52
2018-08-03T04:01:24.812Z,100866.03
2018-08-03T04:03:54.474Z,100862.09
2018-08-03T04:06:23.672Z,100861.25
2018-08-03T04:08:53.184Z,100868.27
2018-08-03T04:11:23.052Z,100870.63
2018-08-03T04:13:52.063Z,100868.34
2018-08-03T04:16:20.636Z,100866.61
2018-08-03T04:18:49.520Z,100875.00
2018-08-03T04:21:19.230Z,100874.41
2018-08-03T04:23:48.210Z,100874.48
2018-08-03T04:26:17.064Z,100873.99
2018-08-03T04:28:45.577Z,100883.73
2018-08-03T04:31:14.404Z,100874.83
2018-08-03T04:33:43.083Z,100876.27
2018-08-03T04:36:12.944Z,100877.25
2018-08-03T04:38:41.446Z,100884.50
2018-08-03T04:41:09.930Z,100872.02
2018-08-03T04:46:31.394Z,100876.41
2018-08-03T04:49:00.968Z,100883.05
2018-08-03T04:51:30.196Z,100882.64
2018-08-03T04:54:00.520Z,100882.42
2018-08-03T04:56:31.436Z,100888.49
2018-08-03T04:59:00.502Z,100889.80
2018-08-03T05:01:29.410Z,100885.72
2018-08-03T05:04:00.168Z,100892.52
2018-08-03T05:06:30.132Z,100886.31
2018-08-03T05:08:59.158Z,100893.89
2018-08-03T05:11:30.116Z,100891.97
2018-08-03T05:13:58.800Z,100893.33
2018-08-03T05:16:28.318Z,100897.27
2018-08-03T05:18:58.736Z,100901.97
2018-08-03T05:21:27.847Z,100904.77
2018-08-03T05:23:56.844Z,100896.93
2018-08-03T05:26:25.780Z,100898.11
2018-08-03T05:28:56.430Z,100895.72
2018-08-03T05:31:25.000Z,100894.73
2018-08-03T05:33:54.590Z,100894.47
2018-08-03T05:36:23.272Z,100897.33
2018-08-03T05:38:52.294Z,100896.62
2018-08-03T05:41:20.983Z,100899.27
2018-08-03T05:43:53.326Z,100897.83
2018-08-03T05:46:22.958Z,100901.69
2018-08-03T05:48:52.850Z,100898.02
2018-08-03T05:51:21.574Z,100901.69
2018-08-03T05:53:51.609Z,100906.98
2018-08-03T05:56:25.414Z,100906.94
2018-08-03T05:58:54.218Z,100911.13
2018-08-03T06:01:23.420Z,100902.30
2018-08-03T06:03:53.452Z,100904.93
2018-08-03T06:06:22.050Z,100905.15
2018-08-03T06:08:50.872Z,100913.16
2018-08-03T06:11:19.654Z,100911.00
2018-08-03T06:13:48.062Z,100914.09
2018-08-03T06:16:17.126Z,100922.48
2018-08-03T06:18:47.091Z,100914.09
2018-08-03T06:21:15.480Z,100914.38
2018-08-03T06:23:49.116Z,100910.14
2018-08-03T06:26:17.918Z,100914.08
2018-08-03T06:28:46.402Z,100910.09
2018-08-03T06:31:14.903Z,100909.99
2018-08-03T06:33:43.754Z,100908.33
2018-08-03T06:36:12.438Z,100912.10
2018-08-03T06:38:41.007Z,100912.16
2018-08-03T06:41:09.627Z,100913.19
2018-08-03T06:43:43.128Z,100911.67
2018-08-03T06:46:11.936Z,100914.67
2018-08-03T06:48:44.360Z,100921.51
2018-08-03T06:51:13.282Z,100911.87
2018-08-03T06:53:42.941Z,100908.62
2018-08-03T06:56:11.475Z,100906.54
2018-08-03T06:58:42.952Z,100906.72
2018-08-03T07:01:12.099Z,100905.02
2018-08-03T07:03:40.869Z,100909.94
2018-08-03T07:06:09.758Z,100911.92
2018-08-03T07:08:39.228Z,100909.03
2018-08-03T07:11:07.898Z,100913.77
2018-08-03T07:13:41.528Z,100915.95
2018-08-03T07:16:10.324Z,100909.36
2018-08-03T07:18:38.834Z,100913.28
2018-08-03T07:21:07.917Z,100909.22
2018-08-03T07:23:41.542Z,100903.05
2018-08-03T07:26:17.160Z,100903.09
2018-08-03T07:28:46.178Z,100906.97
2018-08-03T07:33:53.116Z,100898.25
2018-08-03T07:36:22.716Z,100910.91
2018-08-03T07:38:51.683Z,100910.61
2018-08-03T07:41:21.701Z,100906.22
2018-08-03T07:43:51.190Z,100915.11
2018-08-03T07:46:20.208Z,100909.62
2018-08-03T07:48:50.304Z,100905.05
2018-08-03T07:51:20.441Z,100902.92
2018-08-03T07:53:49.867Z,100903.67
2018-08-03T07:56:18.374Z,100908.42
2018-08-03T07:58:47.160Z,100899.09
2018-08-03T08:01:15.710Z,100889.38
2018-08-03T08:03:44.763Z,100895.86
2018-08-03T08:06:13.668Z,100892.64
2018-08-03T08:08:42.392Z,100888.39
2018-08-03T08:11:11.590Z,100888.64
2018-08-03T08:13:40.300Z,100888.51
2018-08-03T08:16:09.087Z,100888.00
2018-08-03T08:18:38.242Z,100882.19
2018-08-03T08:21:09.478Z,100887.87
2018-08-03T08:23:38.684Z,100889.86
2018-08-03T08:26:12.275Z,100888.46
2018-08-03T08:28:41.324Z,100885.66
2018-08-03T08:31:10.938Z,100879.17
2018-08-03T08:33:44.818Z,100884.25
2018-08-03T08:36:14.902Z,100879.13
2018-08-03T08:38:45.320Z,100871.95
2018-08-03T08:41:18.392Z,100874.27
2018-08-03T08:43:48.290Z,100867.09
2018-08-03T08:46:17.316Z,100872.98
2018-08-03T08:48:46.477Z,100872.64
2018-08-03T08:51:15.027Z,100873.48
2018-08-03T08:56:36.596Z,100862.20
2018-08-03T08:59:05.459Z,100870.50
2018-08-03T09:01:35.303Z,100868.22
2018-08-03T09:04:04.397Z,100873.33
2018-08-03T09:06:33.393Z,100878.05
2018-08-03T09:09:01.910Z,100871.84
2018-08-03T09:11:30.705Z,100867.80
2018-08-03T09:13:59.630Z,100865.30
2018-08-03T09:16:28.680Z,100869.05
2018-08-03T09:18:58.657Z,100873.20
2018-08-03T09:21:27.643Z,100872.27
2018-08-03T09:24:02.345Z,100876.62
2018-08-03T09:26:33.497Z,100866.72
2018-08-03T09:29:03.547Z,100863.25
2018-08-03T09:31:34.737Z,100859.95
2018-08-03T09:34:06.611Z,100859.97
2018-08-03T09:36:35.394Z,100854.11
2018-08-03T09:39:05.159Z,100853.17
2018-08-03T09:41:33.571Z,100846.37
2018-08-03T09:44:02.049Z,100841.91
2018-08-03T09:46:30.485Z,100845.81
2018-08-03T09:48:59.888Z,100831.14
2018-08-03T09:51:29.027Z,100836.02
2018-08-03T09:53:57.603Z,100834.63
2018-08-03T09:56:26.146Z,100826.41
2018-08-03T09:58:54.613Z,100829.34
2018-08-03T10:01:24.004Z,100823.48
2018-08-03T10:03:52.877Z,100817.63
2018-08-03T10:06:21.441Z,100815.48
2018-08-03T10:08:50.138Z,100811.78
2018-08-03T10:11:18.974Z,100810.03
2018-08-03T10:13:47.676Z,100808.84
2018-08-03T10:16:16.257Z,100804.69
2018-08-03T10:18:44.832Z,100806.82
2018-08-03T10:21:13.589Z,100804.83
2018-08-03T10:23:43.509Z,100804.06
2018-08-03T10:26:12.028Z,100792.23
2018-08-03T10:28:40.512Z,100785.76
2018-08-03T10:31:08.971Z,100802.55
2018-08-03T10:33:37.504Z,100796.00
2018-08-03T10:36:06.096Z,100788.08
2018-08-03T10:38:34.538Z,100786.45
2018-08-03T10:41:02.938Z,100781.48
2018-08-03T10:43:31.472Z,100780.37
2018-08-03T10:46:00.520Z,100773.06
2018-08-03T10:48:29.076Z,100773.05
2018-08-03T10:50:57.566Z,100766.37
2018-08-03T10:53:26.114Z,100774.89
2018-08-03T10:55:55.502Z,100760.38
2018-08-03T10:58:24.838Z,100763.16
2018-08-03T11:00:53.538Z,100763.66
2018-08-03T11:03:22.126Z,100760.20
2018-08-03T11:05:50.568Z,100757.03
2018-08-03T11:08:19.103Z,100753.19
2018-08-03T11:10:47.700Z,100750.17
2018-08-03T11:13:16.218Z,100753.94
2018-08-03T11:15:44.658Z,100754.24
2018-08-03T11:18:13.099Z,100751.95
2018-08-03T11:20:41.670Z,100746.45
2018-08-03T11:23:10.150Z,100734.17
2018-08-03T11:25:38.613Z,100731.56
2018-08-03T11:28:07.051Z,100732.61
2018-08-03T11:30:35.588Z,100724.42
2018-08-03T11:33:04.040Z,100724.30
2018-08-03T11:35:32.486Z,100723.75
2018-08-03T11:38:01.407Z,100725.80
2018-08-03T11:40:29.888Z,100725.66
2018-08-03T11:42:58.359Z,100727.38
2018-08-03T11:45:26.802Z,100727.31
2018-08-03T11:47:55.332Z,100720.12
2018-08-03T11:50:23.756Z,100716.42
2018-08-03T11:52:52.402Z,100716.09
2018-08-03T11:55:20.875Z,100712.64
2018-08-03T11:57:49.376Z,100705.14
2018-08-03T12:00:18.002Z,100703.91
2018-08-03T12:02:46.576Z,100694.73
2018-08-03T12:05:15.324Z,100696.73
2018-08-03T12:07:43.918Z,100686.20
2018-08-03T12:10:12.436Z,100683.37
2018-08-03T12:12:40.973Z,100688.31
2018-08-03T12:15:09.433Z,100681.03
2018-08-03T12:17:37.961Z,100678.39
2018-08-03T12:20:06.568Z,100681.55
2018-08-03T12:22:35.068Z,100676.73
2018-08-03T12:25:03.528Z,100676.96
2018-08-03T12:27:31.908Z,100671.69
2018-08-03T12:30:00.398Z,100675.95
2018-08-03T12:32:28.938Z,100666.48
2018-08-03T12:34:57.388Z,100666.80
2018-08-03T12:37:25.866Z,100660.22
2018-08-03T12:39:54.284Z,100654.44
2018-08-03T12:42:22.866Z,100655.82
2018-08-03T12:44:51.364Z,100649.06
2018-08-03T12:47:19.733Z,100649.56
2018-08-03T12:49:48.207Z,100647.88
2018-08-03T12:52:16.734Z,100641.41
2018-08-03T12:54:45.196Z,100634.15
2018-08-03T12:57:14.602Z,100633.16
2018-08-03T12:59:42.299Z,100626.56
2018-08-03T13:02:10.743Z,100624.14
2018-08-03T13:04:39.501Z,100626.66
2018-08-03T13:07:08.288Z,100628.61
2018-08-03T13:09:36.698Z,100621.03
2018-08-03T13:12:05.344Z,100627.45
2018-08-03T13:14:33.885Z,100623.27
2018-08-03T13:17:02.464Z,100619.35
2018-08-03T13:19:30.950Z,100619.86
2018-08-03T13:21:59.408Z,100616.87
2018-08-03T13:24:28.073Z,100617.16
2018-08-03T13:26:56.504Z,100610.06
2018-08-03T13:29:25.032Z,100601.73
2018-08-03T13:31:53.560Z,100599.92
2018-08-03T13:34:22.300Z,100597.14
2018-08-03T13:36:50.806Z,100591.98
2018-08-03T13:39:19.327Z,100597.81
2018-08-03T13:41:47.834Z,100594.62
2018-08-03T13:44:16.349Z,100592.55
2018-08-03T13:46:45.033Z,100595.34
2018-08-03T13:49:14.924Z,100591.30
2018-08-03T13:51:43.722Z,100580.59
2018-08-03T13:54:12.302Z,100588.02
2018-08-03T13:56:40.872Z,100579.55
2018-08-03T13:59:09.526Z,100580.52
2018-08-03T14:01:40.442Z,100571.99
2018-08-03T14:04:08.852Z,100576.42
2018-08-03T14:06:37.260Z,100564.59
2018-08-03T14:09:07.054Z,100560.27
2018-08-03T14:11:35.578Z,100555.19
2018-08-03T14:14:04.045Z,100553.60
2018-08-03T14:16:32.568Z,100559.05
2018-08-03T14:19:01.101Z,100560.33
2018-08-03T14:21:29.574Z,100552.88
2018-08-03T14:23:59.892Z,100542.63
2018-08-03T14:26:28.412Z,100544.38
2018-08-03T14:28:57.092Z,100553.34
2018-08-03T14:31:25.610Z,100546.60
2018-08-03T14:33:54.866Z,100542.20
2018-08-03T14:36:25.274Z,100540.60
2018-08-03T14:38:53.792Z,100543.36
2018-08-03T14:41:22.467Z,100534.05
2018-08-03T14:43:50.990Z,100535.03
2018-08-03T14:46:19.500Z,100530.36
2018-08-03T14:48:48.094Z,100537.61
2018-08-03T14:51:16.810Z,100524.95
2018-08-03T14:53:45.280Z,100525.58
2018-08-03T14:56:13.870Z,100524.43
2018-08-03T14:58:42.414Z,100519.50
2018-08-03T15:01:11.220Z,100524.27
2018-08-03T15:03:39.808Z,100520.98
2018-08-03T15:06:09.384Z,100527.51
2018-08-03T15:08:38.018Z,100521.70
2018-08-03T15:11:06.921Z,100513.11
2018-08-03T15:13:35.453Z,100514.68
2018-08-03T15:16:03.308Z,100506.84
2018-08-03T15:18:31.040Z,100501.95
2018-08-03T15:20:58.904Z,100499.91
2018-08-03T15:23:26.650Z,100494.11
2018-08-03T15:25:54.432Z,100494.29
2018-08-03T15:28:22.408Z,100489.80
2018-08-03T15:30:50.975Z,100494.55
2018-08-03T15:33:18.738Z,100499.44
2018-08-03T15:35:47.128Z,100488.91
2018-08-03T15:38:15.496Z,100483.97
2018-08-03T15:40:48.397Z,100479.47
2018-08-03T15:43:19.934Z,100476.34
2018-08-03T15:45:50.000Z,100476.37
2018-08-03T15:48:21.447Z,100474.77
2018-08-03T15:50:50.951Z,100472.22
2018-08-03T15:53:20.608Z,100477.60
2018-08-03T15:55:50.072Z,100467.54
2018-08-03T15:58:18.664Z,100464.79
2018-08-03T16:00:49.315Z,100462.03
2018-08-03T16:03:18.690Z,100462.09
2018-08-03T16:05:49.250Z,100460.48
2018-08-03T16:08:20.902Z,100455.95
2018-08-03T16:10:50.896Z,100452.59
2018-08-03T16:13:20.598Z,100453.20
2018-08-03T16:15:51.585Z,100449.23
2018-08-03T16:18:20.350Z,100441.95
2018-08-03T16:20:53.336Z,100435.41
2018-08-03T16:29:23.996Z,100439.02
2018-08-03T16:31:52.620Z,100436.50
2018-08-03T16:34:22.786Z,100431.52
2018-08-03T16:36:54.792Z,100428.34
2018-08-03T16:39:23.760Z,100430.57
2018-08-03T16:41:53.213Z,100424.55
2018-08-03T17:01:54.948Z,100429.33
2018-08-03T17:04:43.051Z,100430.95
2018-08-03T17:07:11.497Z,100427.45
2018-08-03T17:09:40.040Z,100426.75
2018-08-03T17:12:08.809Z,100426.03
2018-08-03T17:14:47.111Z,100423.77
2018-08-03T17:17:16.217Z,100424.59
2018-08-03T17:19:44.765Z,100423.63
2018-08-03T17:22:14.896Z,100422.50
2018-08-03T17:24:45.206Z,100418.27
2018-08-03T17:27:13.758Z,100419.27
2018-08-03T17:29:44.602Z,100423.45
2018-08-03T17:32:13.282Z,100415.25
2018-08-03T17:34:44.044Z,100417.05
2018-08-03T17:37:12.596Z,100417.29
2018-08-03T17:39:41.453Z,100412.21
2018-08-03T17:42:10.464Z,100419.51
2018-08-03T17:44:39.820Z,100419.13
2018-08-03T17:47:08.426Z,100413.72
2018-08-03T17:49:38.104Z,100423.73
2018-08-03T17:52:06.585Z,100425.50
2018-08-03T17:54:35.304Z,100430.81
2018-08-03T17:57:03.986Z,100424.53
2018-08-03T17:59:34.268Z,100421.97
2018-08-03T18:02:06.584Z,100434.57
2018-08-03T18:04:35.284Z,100431.98
2018-08-03T18:07:05.039Z,100433.96
2018-08-03T18:09:34.175Z,100438.85
2018-08-03T18:12:02.708Z,100440.51
2018-08-03T18:14:32.820Z,100438.62
2018-08-03T18:17:01.526Z,100440.77
2018-08-03T18:19:32.447Z,100438.25
2018-08-03T18:22:03.041Z,100441.47
2018-08-03T18:24:33.808Z,100440.97
2018-08-03T18:27:03.100Z,100438.50
2018-08-03T18:29:32.431Z,100442.89
2018-08-03T18:32:03.734Z,100438.95
2018-08-03T18:34:33.193Z,100437.77
2018-08-03T18:37:03.752Z,100444.45
2018-08-03T18:39:33.101Z,100439.38
2018-08-03T18:42:03.167Z,100440.14
2018-08-03T18:44:33.990Z,100441.29
2018-08-03T18:47:03.739Z,100439.15
2018-08-03T18:49:32.696Z,100443.66
2018-08-03T18:52:03.476Z,100441.52
2018-08-03T18:54:38.132Z,100445.67
2018-08-03T18:57:08.465Z,100441.41
2018-08-03T18:59:41.715Z,100443.39
2018-08-03T19:02:11.596Z,100443.92
2018-08-03T19:04:40.642Z,100453.92
2018-08-03T19:07:10.083Z,100453.77
2018-08-03T19:09:39.154Z,100456.51
2018-08-03T19:12:09.973Z,100458.84
2018-08-03T19:14:38.658Z,100459.19
2018-08-03T19:17:08.478Z,100460.56
2018-08-03T19:19:37.460Z,100461.77
2018-08-03T19:22:07.860Z,100462.00
2018-08-03T19:24:36.446Z,100464.74
2018-08-03T19:27:05.328Z,100463.75
2018-08-03T19:29:34.850Z,100460.89
2018-08-03T19:32:04.867Z,100465.84
2018-08-03T19:34:39.484Z,100468.02
2018-08-03T19:37:08.952Z,100469.48
2018-08-03T19:39:40.636Z,100467.53
2018-08-03T19:42:09.502Z,100467.76
2018-08-03T19:44:44.122Z,100471.11
2018-08-03T19:47:12.911Z,100464.44
2018-08-03T19:49:42.601Z,100465.81
2018-08-03T19:52:11.321Z,100475.42
2018-08-03T19:54:45.230Z,100464.44
2018-08-03T19:57:14.146Z,100467.76
2018-08-03T19:59:43.377Z,100468.55
2018-08-03T20:02:12.282Z,100464.44
2018-08-03T20:04:47.068Z,100467.95
2018-08-03T20:07:16.754Z,100458.95
2018-08-03T20:09:46.514Z,100467.95
2018-08-03T20:12:15.383Z,100468.59
2018-08-03T20:14:43.994Z,100461.95
2018-08-03T20:17:13.592Z,100468.42
2018-08-03T20:19:42.236Z,100471.78
2018-08-03T20:22:15.212Z,100474.55
2018-08-03T20:24:44.033Z,100472.83
2018-08-03T20:27:14.280Z,100476.75
2018-08-03T20:29:43.486Z,100474.99
2018-08-03T20:32:12.094Z,100471.10
2018-08-03T20:34:40.754Z,100472.69
2018-08-03T20:37:09.417Z,100475.84
2018-08-03T20:39:38.040Z,100471.19
2018-08-03T20:42:06.660Z,100473.19
2018-08-03T20:44:35.415Z,100475.36
2018-08-03T20:47:04.128Z,100480.30
2018-08-03T20:49:32.608Z,100475.44
2018-08-03T20:52:01.209Z,100474.09
2018-08-03T20:54:29.858Z,100470.97
2018-08-03T20:56:58.470Z,100477.63
2018-08-03T20:59:27.800Z,100476.09
2018-08-03T21:01:56.338Z,100479.22
2018-08-03T21:04:26.221Z,100483.74
2018-08-03T21:06:54.727Z,100484.34
2018-08-03T21:09:23.198Z,100479.84
2018-08-03T21:11:51.886Z,100479.10
2018-08-03T21:14:20.387Z,100479.70
2018-08-03T21:16:49.889Z,100485.41
2018-08-03T21:19:18.349Z,100488.53
2018-08-03T21:21:46.778Z,100484.63
2018-08-03T21:24:15.816Z,100486.00
2018-08-03T21:26:44.361Z,100484.05
2018-08-03T21:29:12.800Z,100487.61
2018-08-03T21:31:41.288Z,100485.66
2018-08-03T21:37:07.904Z,100487.50
2018-08-03T21:39:36.882Z,100488.29
2018-08-03T21:42:05.422Z,100487.52
2018-08-03T21:44:43.450Z,100493.01
2018-08-03T21:47:12.146Z,100486.58
2018-08-03T21:49:40.923Z,100485.62
2018-08-03T21:52:09.364Z,100486.41
2018-08-03T21:54:37.901Z,100491.33
2018-08-03T21:57:07.172Z,100482.93
2018-08-03T21:59:36.154Z,100484.30
2018-08-03T22:02:04.993Z,100486.88
2018-08-03T22:04:39.539Z,100496.46
2018-08-03T22:07:08.552Z,100494.14
2018-08-03T22:09:38.789Z,100491.20
2018-08-03T22:12:08.586Z,100491.62
2018-08-03T22:14:37.272Z,100486.52
2018-08-03T22:17:06.310Z,100491.63
2018-08-03T22:19:35.812Z,100493.57
2018-08-03T22:22:05.389Z,100491.44
2018-08-03T22:24:34.169Z,100489.85
2018-08-03T22:27:02.851Z,100487.16
2018-08-03T22:29:32.341Z,100492.63
2018-08-03T22:32:01.018Z,100479.51
2018-08-03T22:34:31.528Z,100487.91
2018-08-03T22:37:00.646Z,100483.81
2018-08-03T22:39:29.165Z,100482.79
2018-08-03T22:41:58.260Z,100486.55
2018-08-03T22:44:27.341Z,100483.22
2018-08-03T22:46:55.981Z,100479.48
2018-08-03T22:49:24.871Z,100484.00
2018-08-03T22:51:53.723Z,100478.53
2018-08-03T22:54:22.227Z,100483.41
2018-08-03T22:56:50.753Z,100483.05
2018-08-03T22:59:19.361Z,100481.48
2018-08-03T23:01:47.819Z,100477.58
2018-08-03T23:04:16.239Z,100470.55
2018-08-03T23:06:45.019Z,100468.63
2018-08-03T23:09:14.402Z,100479.38
2018-08-03T23:11:42.811Z,100472.95
2018-08-03T23:14:12.247Z,100468.09
2018-08-03T23:16:42.238Z,100467.13
2018-08-03T23:19:11.123Z,100462.25
2018-08-03T23:21:40.735Z,100463.02
2018-08-03T23:24:09.381Z,100463.23
2018-08-03T23:26:37.773Z,100459.74
2018-08-03T23:29:06.367Z,100454.68
2018-08-03T23:31:36.562Z,100460.36
2018-08-03T23:34:05.045Z,100457.06
2018-08-03T23:36:33.471Z,100455.91
2018-08-03T23:39:02.986Z,100451.78
2018-08-03T23:41:31.623Z,100457.05
2018-08-03T23:44:00.126Z,100458.42
2018-08-03T23:46:28.673Z,100458.83
2018-08-03T23:48:57.210Z,100452.98
2018-08-03T23:51:25.645Z,100443.02
2018-08-03T23:53:54.260Z,100448.89
2018-08-03T23:56:23.418Z,100442.45
2018-08-03T23:58:54.189Z,100445.00
